createdAt,value
2022-09-09T00:00:23.477Z,0.90
2022-09-09T00:04:33.975Z,1.20
2022-09-09T00:08:52.760Z,1.20
2022-09-09T00:13:20.417Z,1.00
2022-09-09T00:17:48.848Z,1.20
2022-09-09T00:22:05.774Z,1.48
2022-09-09T00:26:23.121Z,1.13
2022-09-09T00:30:27.620Z,1.20
2022-09-09T00:34:30.366Z,1.08
2022-09-09T00:38:37.957Z,1.30
2022-09-09T00:42:44.405Z,1.33
2022-09-09T00:47:00.856Z,1.02
2022-09-09T00:51:16.331Z,1.17
2022-09-09T00:55:57.392Z,1.08
2022-09-09T01:00:05.164Z,1.10
2022-09-09T01:04:17.353Z,1.50
2022-09-09T01:08:50.131Z,1.17
2022-09-09T01:12:54.949Z,1.20
2022-09-09T01:17:00.917Z,1.25
2022-09-09T01:21:26.995Z,1.40
2022-09-09T01:25:50.956Z,1.38
2022-09-09T01:29:58.563Z,1.40
2022-09-09T01:34:00.654Z,1.40
2022-09-09T01:38:02.589Z,1.48
2022-09-09T01:42:07.475Z,1.58
2022-09-09T01:46:10.710Z,1.55
2022-09-09T01:50:15.926Z,1.55
2022-09-09T01:54:19.052Z,1.77
2022-09-09T01:58:35.384Z,1.77
2022-09-09T02:02:45.216Z,1.50
2022-09-09T02:06:56.739Z,1.38
2022-09-09T02:11:12.783Z,1.45
2022-09-09T02:15:31.541Z,1.50
2022-09-09T02:19:37.423Z,1.40
2022-09-09T02:23:49.843Z,1.40
2022-09-09T02:27:52.648Z,1.33
2022-09-09T02:31:59.248Z,1.73
2022-09-09T02:36:07.770Z,1.30
2022-09-09T02:40:12.135Z,1.30
2022-09-09T02:44:19.680Z,1.33
2022-09-09T02:48:35.596Z,1.42
2022-09-09T02:52:59.874Z,1.33
2022-09-09T03:01:13.173Z,1.30
2022-09-09T03:05:15.155Z,1.40
2022-09-09T03:09:17.192Z,1.20
2022-09-09T03:13:20.290Z,1.30
2022-09-09T03:17:22.124Z,1.58
2022-09-09T03:21:28.109Z,1.42
2022-09-09T03:25:30.996Z,1.50
2022-09-09T03:29:32.712Z,1.47
2022-09-09T03:33:42.157Z,1.70
2022-09-09T03:37:46.235Z,1.27
2022-09-09T03:41:49.507Z,1.40
2022-09-09T03:45:51.823Z,1.50
2022-09-09T03:49:53.489Z,1.52
2022-09-09T03:53:56.556Z,1.45
2022-09-09T03:57:58.284Z,1.33
2022-09-09T04:02:00.307Z,1.10
2022-09-09T04:06:04.551Z,1.80
2022-09-09T04:10:09.442Z,1.80
2022-09-09T04:14:13.846Z,1.65
2022-09-09T04:18:19.831Z,2.03
2022-09-09T04:22:23.371Z,1.50
2022-09-09T04:26:25.576Z,1.27
2022-09-09T04:30:28.621Z,1.33
2022-09-09T04:34:31.531Z,1.90
2022-09-09T04:42:37.109Z,1.55
2022-09-09T04:46:38.992Z,1.90
2022-09-09T04:50:41.671Z,1.50
2022-09-09T04:54:46.800Z,1.45
2022-09-09T04:58:49.048Z,1.25
2022-09-09T05:02:52.139Z,1.38
2022-09-09T05:06:53.710Z,1.27
2022-09-09T05:10:56.299Z,1.30
2022-09-09T05:14:57.994Z,1.15
2022-09-09T05:19:00.168Z,1.58
2022-09-09T05:23:09.213Z,1.40
2022-09-09T05:27:13.218Z,1.00
2022-09-09T05:31:17.687Z,1.10
2022-09-09T05:35:22.181Z,1.40
2022-09-09T05:39:24.495Z,1.30
2022-09-09T05:43:28.197Z,1.65
2022-09-09T05:47:30.916Z,1.10
2022-09-09T05:51:33.516Z,0.95
2022-09-09T05:55:41.600Z,1.25
2022-09-09T05:59:43.513Z,1.40
2022-09-09T06:03:46.672Z,1.10
2022-09-09T06:07:48.366Z,1.10
2022-09-09T06:11:50.046Z,1.42
2022-09-09T06:15:53.174Z,1.58
2022-09-09T06:19:54.988Z,1.02
2022-09-09T06:24:00.889Z,1.10
2022-09-09T06:28:03.396Z,1.30
2022-09-09T06:32:05.888Z,1.60
2022-09-09T06:36:16.345Z,2.15
2022-09-09T06:40:19.099Z,1.15
2022-09-09T06:44:21.187Z,0.97
2022-09-09T06:48:22.946Z,1.30
2022-09-09T06:52:25.921Z,1.38
2022-09-09T06:56:35.002Z,1.20
2022-09-09T07:00:42.435Z,1.48
2022-09-09T07:04:45.375Z,1.42
2022-09-09T07:08:56.783Z,1.38
2022-09-09T07:13:02.682Z,1.40
2022-09-09T07:17:04.513Z,1.30
2022-09-09T07:21:15.781Z,1.70
2022-09-09T07:25:19.045Z,2.45
2022-09-09T07:29:21.536Z,1.45
2022-09-09T07:33:26.714Z,1.60
2022-09-09T07:37:28.457Z,1.35
2022-09-09T07:41:35.217Z,1.45
2022-09-09T07:45:36.936Z,1.35
2022-09-09T07:49:38.698Z,1.40
2022-09-09T07:53:42.352Z,1.50
2022-09-09T07:57:44.266Z,1.57
2022-09-09T08:01:49.407Z,1.48
2022-09-09T08:05:54.299Z,1.45
2022-09-09T08:09:56.749Z,1.73
2022-09-09T08:14:03.937Z,1.52
2022-09-09T08:18:06.722Z,1.27
2022-09-09T08:22:09.568Z,1.60
2022-09-09T08:26:24.313Z,1.52
2022-09-09T08:30:26.112Z,1.13
2022-09-09T08:34:29.115Z,1.50
2022-09-09T08:38:35.385Z,1.88
2022-09-09T08:42:47.976Z,2.05
2022-09-09T08:47:30.620Z,1.52
2022-09-09T08:51:35.725Z,1.75
2022-09-09T08:55:54.129Z,1.93
2022-09-09T09:00:01.838Z,1.48
2022-09-09T09:08:39.220Z,1.50
2022-09-09T09:12:44.156Z,1.45
2022-09-09T09:17:07.519Z,1.63
2022-09-09T09:21:24.707Z,1.85
2022-09-09T09:25:36.613Z,1.83
2022-09-09T09:30:03.150Z,1.70
2022-09-09T09:34:04.312Z,1.60
2022-09-09T09:42:59.211Z,1.60
2022-09-09T09:47:14.436Z,1.63
2022-09-09T09:51:23.514Z,1.20
2022-09-09T09:55:27.092Z,1.35
2022-09-09T09:59:43.835Z,1.20
2022-09-09T10:04:03.189Z,1.20
2022-09-09T10:08:10.217Z,1.10
2022-09-09T10:12:29.838Z,1.25
2022-09-09T10:16:59.789Z,1.38
2022-09-09T10:21:19.606Z,1.35
2022-09-09T10:25:36.734Z,1.45
2022-09-09T10:30:17.566Z,1.00
2022-09-09T10:34:46.287Z,1.17
2022-09-09T10:38:53.496Z,1.75
2022-09-09T10:43:20.699Z,2.13
2022-09-09T10:47:56.276Z,1.58
2022-09-09T10:52:19.116Z,1.60
2022-09-09T10:56:25.008Z,3.70
2022-09-09T11:00:39.782Z,3.50
2022-09-09T11:04:46.374Z,5.63
2022-09-09T11:08:53.789Z,6.75
2022-09-09T11:13:05.033Z,5.85
2022-09-09T11:17:28.050Z,6.28
2022-09-09T11:21:38.720Z,7.60
2022-09-09T11:25:46.684Z,6.22
2022-09-09T11:30:07.742Z,5.53
2022-09-09T11:34:43.317Z,4.57
2022-09-09T11:38:52.446Z,4.25
2022-09-09T11:43:04.315Z,6.05
2022-09-09T11:47:43.711Z,2.78
2022-09-09T11:51:48.552Z,1.87
2022-09-09T11:56:06.750Z,2.75
2022-09-09T12:00:48.752Z,2.30
2022-09-09T12:05:16.090Z,2.35
2022-09-09T12:09:27.969Z,3.08
2022-09-09T12:13:29.709Z,2.35
2022-09-09T12:17:34.439Z,2.10
2022-09-09T12:21:45.791Z,1.90
2022-09-09T12:26:02.756Z,1.58
2022-09-09T12:30:11.811Z,1.58
2022-09-09T12:34:21.525Z,2.05
2022-09-09T12:38:40.702Z,2.17
2022-09-09T12:42:42.265Z,1.30
2022-09-09T12:46:47.719Z,1.33
2022-09-09T12:50:52.510Z,1.27
2022-09-09T12:54:54.818Z,1.13
2022-09-09T12:58:59.264Z,0.85
2022-09-09T13:03:03.813Z,0.98
2022-09-09T13:07:10.885Z,0.88
2022-09-09T13:11:19.461Z,1.00
2022-09-09T13:15:25.329Z,1.02
2022-09-09T13:19:29.973Z,0.70
2022-09-09T13:23:36.215Z,0.70
2022-09-09T13:27:40.863Z,0.60
2022-09-09T13:31:42.710Z,0.50
2022-09-09T13:35:50.700Z,0.30
2022-09-09T13:39:54.657Z,0.43
2022-09-09T13:43:56.495Z,0.35
2022-09-09T13:47:58.144Z,0.88
2022-09-09T13:52:17.864Z,0.50
2022-09-09T13:56:19.666Z,0.70
2022-09-09T14:00:22.174Z,0.67
2022-09-09T14:04:23.950Z,0.70
2022-09-09T14:08:28.373Z,0.75
2022-09-09T14:12:31.285Z,0.70
2022-09-09T14:16:32.974Z,0.77
2022-09-09T14:20:34.537Z,0.75
2022-09-09T14:24:36.529Z,1.17
2022-09-09T14:28:57.174Z,0.95
2022-09-09T14:32:59.112Z,0.60
2022-09-09T14:37:00.653Z,0.70
2022-09-09T14:41:04.244Z,0.70
2022-09-09T14:45:06.488Z,0.73
2022-09-09T14:49:08.444Z,0.82
2022-09-09T14:53:11.053Z,0.93
2022-09-09T14:57:12.597Z,0.60
2022-09-09T15:01:16.744Z,0.80
2022-09-09T15:05:18.468Z,0.63
2022-09-09T15:09:20.020Z,0.57
2022-09-09T15:13:21.752Z,0.77
2022-09-09T15:17:28.168Z,0.68
2022-09-09T15:21:34.393Z,0.50
2022-09-09T15:25:36.021Z,0.50
2022-09-09T15:29:40.412Z,0.70
2022-09-09T15:33:42.579Z,0.63
2022-09-09T15:37:44.136Z,1.13
2022-09-09T15:41:47.879Z,1.33
2022-09-09T15:45:57.800Z,0.90
2022-09-09T15:49:59.448Z,0.60
2022-09-09T15:54:01.257Z,0.73
2022-09-09T15:58:02.899Z,1.30
2022-09-09T16:02:06.252Z,0.75
2022-09-09T16:06:08.119Z,1.13
2022-09-09T16:10:10.522Z,0.88
2022-09-09T16:14:12.139Z,0.70
2022-09-09T16:18:13.750Z,0.70
2022-09-09T16:22:16.388Z,0.93
2022-09-09T16:26:19.349Z,0.40
2022-09-09T16:30:20.941Z,0.50
2022-09-09T16:34:23.399Z,0.85
2022-09-09T16:38:25.337Z,0.50
2022-09-09T16:42:27.404Z,0.77
2022-09-09T16:46:30.089Z,0.70
2022-09-09T16:50:31.947Z,0.80
2022-09-09T16:54:33.475Z,0.68
2022-09-09T16:58:35.435Z,0.80
2022-09-09T17:02:37.108Z,0.67
2022-09-09T17:06:39.196Z,0.98
2022-09-09T17:10:44.591Z,0.77
2022-09-09T17:14:46.664Z,1.05
2022-09-09T17:18:52.270Z,0.93
2022-09-09T17:22:53.837Z,0.80
2022-09-09T17:26:56.270Z,0.88
2022-09-09T17:31:02.338Z,1.10
2022-09-09T17:35:06.817Z,1.08
2022-09-09T17:39:09.099Z,0.85
2022-09-09T17:43:10.675Z,0.82
2022-09-09T17:47:12.218Z,1.02
2022-09-09T17:51:19.906Z,1.00
2022-09-09T17:55:22.444Z,1.13
2022-09-09T17:59:25.655Z,1.02
2022-09-09T18:03:27.218Z,1.10
2022-09-09T18:07:28.759Z,0.95
2022-09-09T18:11:33.097Z,1.20
2022-09-09T18:15:49.202Z,0.98
2022-09-09T18:19:51.883Z,1.20
2022-09-09T18:23:53.849Z,1.20
2022-09-09T18:27:55.567Z,1.23
2022-09-09T18:31:57.464Z,1.20
2022-09-09T18:36:05.085Z,1.17
2022-09-09T18:40:07.053Z,0.93
2022-09-09T18:44:13.651Z,1.07
2022-09-09T18:48:15.188Z,0.98
2022-09-09T18:52:16.832Z,0.95
2022-09-09T18:56:18.409Z,0.80
2022-09-09T19:00:20.792Z,0.80
2022-09-09T19:04:24.008Z,0.75
2022-09-09T19:12:27.389Z,1.15
2022-09-09T19:16:31.516Z,1.00
2022-09-09T19:20:33.156Z,1.40
2022-09-09T19:24:34.854Z,1.30
2022-09-09T19:28:36.832Z,0.93
2022-09-09T19:32:52.693Z,1.13
2022-09-09T19:36:55.091Z,1.17
2022-09-09T19:40:56.967Z,1.00
2022-09-09T19:44:58.545Z,0.80
2022-09-09T19:49:01.479Z,0.98
2022-09-09T19:57:05.825Z,0.88
2022-09-09T20:01:15.378Z,0.93
2022-09-09T20:05:16.967Z,1.10
2022-09-09T20:09:19.552Z,0.90
2022-09-09T20:13:21.249Z,1.10
2022-09-09T20:17:24.395Z,1.30
2022-09-09T20:21:31.986Z,1.02
2022-09-09T20:25:36.208Z,1.25
2022-09-09T20:29:37.823Z,1.40
2022-09-09T20:33:41.211Z,1.48
2022-09-09T20:37:42.880Z,1.10
2022-09-09T20:41:46.032Z,1.23
2022-09-09T20:45:47.632Z,1.40
2022-09-09T20:49:49.234Z,1.30
2022-09-09T20:53:59.562Z,1.15
2022-09-09T20:58:01.328Z,1.10
2022-09-09T21:02:03.456Z,1.40
2022-09-09T21:06:06.951Z,1.10
2022-09-09T21:10:08.794Z,0.90
2022-09-09T21:14:10.817Z,1.13
2022-09-09T21:18:12.362Z,0.90
2022-09-09T21:22:14.359Z,1.23
2022-09-09T21:26:17.893Z,1.10
2022-09-09T21:30:19.455Z,1.08
2022-09-09T21:34:21.780Z,1.25
2022-09-09T21:38:24.771Z,1.10
2022-09-09T21:46:28.334Z,1.58
2022-09-09T21:50:30.802Z,1.35
2022-09-09T21:54:32.366Z,1.23
2022-09-09T21:58:35.445Z,1.50
2022-09-09T22:02:37.299Z,1.45
2022-09-09T22:06:38.929Z,2.20
2022-09-09T22:10:42.783Z,1.70
2022-09-09T22:14:44.340Z,2.13
2022-09-09T22:18:51.237Z,2.03
2022-09-09T22:22:52.748Z,1.80
2022-09-09T22:26:55.639Z,1.73
2022-09-09T22:30:57.663Z,2.05
2022-09-09T22:34:59.198Z,2.10
2022-09-09T22:39:01.963Z,2.25
2022-09-09T22:43:05.332Z,2.30
2022-09-09T22:47:06.967Z,2.28
2022-09-09T22:51:12.196Z,1.90
2022-09-09T22:55:13.913Z,1.75
2022-09-09T22:59:16.006Z,1.60
2022-09-09T23:03:18.006Z,2.00
2022-09-09T23:07:20.593Z,2.13
2022-09-09T23:11:23.717Z,2.90
2022-09-09T23:15:25.567Z,2.10
2022-09-09T23:19:28.789Z,2.10
2022-09-09T23:23:30.331Z,2.30
2022-09-09T23:27:32.946Z,2.33
2022-09-09T23:31:38.576Z,2.22
2022-09-09T23:35:40.708Z,2.30
2022-09-09T23:39:42.838Z,2.50
2022-09-09T23:43:45.040Z,2.17
2022-09-09T23:47:46.819Z,2.40
2022-09-09T23:51:49.640Z,2.17
2022-09-09T23:55:51.164Z,2.67
2022-09-09T23:59:52.764Z,2.38
